createdAt,value
2023-03-06T00:00:10.793Z,8.20
2023-03-06T00:03:19.622Z,8.40
2023-03-06T00:06:11.695Z,7.10
2023-03-06T00:09:03.815Z,7.90
2023-03-06T00:11:55.841Z,7.50
2023-03-06T00:14:38.060Z,6.70
2023-03-06T00:17:31.186Z,7.00
2023-03-06T00:20:23.866Z,6.80
2023-03-06T00:23:16.021Z,5.70
2023-03-06T00:25:59.323Z,6.80
2023-03-06T00:28:51.301Z,6.50
2023-03-06T00:31:46.281Z,6.80
2023-03-06T00:34:38.733Z,7.00
2023-03-06T00:37:10.654Z,7.70
2023-03-06T00:40:02.742Z,7.70
2023-03-06T00:42:54.778Z,7.30
2023-03-06T00:45:46.800Z,7.50
2023-03-06T00:48:38.893Z,7.20
2023-03-06T00:51:30.952Z,7.30
2023-03-06T00:54:22.927Z,6.80
2023-03-06T00:57:14.867Z,8.00
2023-03-06T01:00:08.551Z,8.50
2023-03-06T01:02:50.154Z,7.30
2023-03-06T01:05:42.592Z,6.60
2023-03-06T01:08:34.707Z,8.50
2023-03-06T01:11:26.762Z,6.50
2023-03-06T01:13:58.880Z,8.40
2023-03-06T01:16:51.301Z,7.60
2023-03-06T01:19:43.339Z,8.80
2023-03-06T01:22:24.944Z,8.40
2023-03-06T01:25:16.915Z,8.10
2023-03-06T01:28:08.997Z,8.50
2023-03-06T01:31:01.600Z,7.00
2023-03-06T01:33:53.915Z,9.10
2023-03-06T01:36:46.183Z,9.40
2023-03-06T01:39:38.198Z,10.80
2023-03-06T01:42:32.056Z,10.70
2023-03-06T01:45:58.550Z,11.70
2023-03-06T01:48:53.485Z,10.70
2023-03-06T01:51:49.060Z,11.10
2023-03-06T01:54:45.724Z,11.70
2023-03-06T01:57:43.655Z,11.10
2023-03-06T02:00:36.008Z,11.60
2023-03-06T02:03:29.837Z,11.00
2023-03-06T02:06:21.948Z,11.70
2023-03-06T02:09:15.120Z,11.50
2023-03-06T02:12:10.948Z,13.10
2023-03-06T02:15:03.462Z,12.00
2023-03-06T02:17:55.701Z,11.90
2023-03-06T02:20:51.982Z,11.90
2023-03-06T02:23:51.513Z,11.40
2023-03-06T02:26:45.631Z,11.60
2023-03-06T02:32:28.267Z,11.80
2023-03-06T02:35:25.132Z,13.90
2023-03-06T02:38:19.581Z,13.00
2023-03-06T02:40:55.104Z,13.10
2023-03-06T02:43:49.528Z,12.40
2023-03-06T02:46:41.501Z,13.50
2023-03-06T02:49:33.587Z,13.30
2023-03-06T02:52:25.608Z,13.70
2023-03-06T02:55:17.718Z,13.00
2023-03-06T02:58:10.217Z,11.90
2023-03-06T03:01:02.193Z,11.50
2023-03-06T03:03:54.173Z,11.20
2023-03-06T03:06:46.196Z,11.70
2023-03-06T03:09:38.206Z,12.00
2023-03-06T03:12:30.177Z,12.60
2023-03-06T03:15:22.285Z,12.00
2023-03-06T03:18:14.751Z,12.80
2023-03-06T03:20:51.938Z,14.40
2023-03-06T03:23:44.020Z,14.70
2023-03-06T03:26:36.078Z,14.70
2023-03-06T03:29:28.122Z,16.00
2023-03-06T03:32:20.266Z,16.60
2023-03-06T03:35:13.274Z,15.60
2023-03-06T03:38:05.635Z,16.00
2023-03-06T03:40:57.840Z,16.80
2023-03-06T03:43:49.843Z,17.10
2023-03-06T03:46:41.793Z,16.50
2023-03-06T03:49:33.868Z,15.90
2023-03-06T03:52:25.906Z,16.00
2023-03-06T03:55:17.922Z,15.90
2023-03-06T03:58:07.082Z,16.90
2023-03-06T04:00:59.133Z,15.10
2023-03-06T04:03:51.352Z,14.50
2023-03-06T04:06:43.332Z,14.30
2023-03-06T04:09:35.336Z,14.20
2023-03-06T04:12:27.646Z,14.60
2023-03-06T04:15:19.769Z,14.00
2023-03-06T04:18:12.115Z,13.70
2023-03-06T04:21:04.232Z,12.90
2023-03-06T04:23:56.266Z,13.70
2023-03-06T04:26:37.095Z,12.00
2023-03-06T04:29:29.286Z,12.80
2023-03-06T04:32:21.687Z,12.70
2023-03-06T04:35:14.003Z,10.00
2023-03-06T04:38:06.371Z,11.00
2023-03-06T04:40:58.518Z,10.80
2023-03-06T04:43:50.632Z,11.00
2023-03-06T04:46:42.685Z,10.90
2023-03-06T04:49:17.444Z,10.30
2023-03-06T04:52:10.110Z,10.50
2023-03-06T04:55:04.125Z,11.20
2023-03-06T04:57:56.764Z,11.10
2023-03-06T05:00:48.887Z,13.00
2023-03-06T05:03:40.906Z,13.90
2023-03-06T05:06:32.947Z,14.40
2023-03-06T05:09:24.939Z,14.10
2023-03-06T05:12:16.912Z,14.60
2023-03-06T05:15:00.244Z,15.20
2023-03-06T05:17:52.224Z,15.00
2023-03-06T05:20:44.183Z,15.80
2023-03-06T05:23:38.554Z,14.10
2023-03-06T05:26:30.692Z,14.90
2023-03-06T05:29:22.927Z,15.00
2023-03-06T05:32:15.066Z,15.50
2023-03-06T05:34:49.988Z,17.20
2023-03-06T05:37:42.008Z,17.80
2023-03-06T05:40:34.146Z,17.20
2023-03-06T05:43:10.383Z,18.30
2023-03-06T05:45:53.076Z,17.90
2023-03-06T05:48:46.835Z,17.80
2023-03-06T05:51:39.169Z,18.50
2023-03-06T05:54:14.156Z,18.20
2023-03-06T05:57:07.110Z,20.90
2023-03-06T05:59:59.114Z,19.20
2023-03-06T06:02:51.344Z,18.20
2023-03-06T06:05:32.304Z,17.70
2023-03-06T06:08:24.591Z,14.90
2023-03-06T06:11:01.974Z,14.70
2023-03-06T06:13:54.020Z,17.20
2023-03-06T06:16:46.150Z,14.00
2023-03-06T06:19:38.165Z,14.70
2023-03-06T06:22:30.235Z,13.50
2023-03-06T06:25:22.237Z,18.20
2023-03-06T06:28:14.219Z,18.10
2023-03-06T06:31:12.263Z,18.50
2023-03-06T06:34:04.777Z,18.80
2023-03-06T06:36:57.169Z,15.90
2023-03-06T06:39:49.222Z,20.10
2023-03-06T06:42:41.694Z,17.80
2023-03-06T06:45:33.701Z,14.30
2023-03-06T06:48:25.708Z,12.50
2023-03-06T06:51:18.180Z,13.30
2023-03-06T06:54:00.253Z,10.50
2023-03-06T06:56:52.249Z,11.40
2023-03-06T06:59:44.266Z,11.50
2023-03-06T07:02:36.366Z,9.80
2023-03-06T07:05:28.497Z,9.40
2023-03-06T07:08:20.480Z,9.80
2023-03-06T07:11:15.588Z,8.00
2023-03-06T07:14:07.595Z,8.90
2023-03-06T07:16:59.611Z,9.80
2023-03-06T07:19:51.680Z,9.40
2023-03-06T07:22:50.705Z,9.60
2023-03-06T07:25:43.618Z,9.00
2023-03-06T07:28:51.294Z,6.80
2023-03-06T07:31:44.271Z,6.80
2023-03-06T07:34:36.279Z,8.00
2023-03-06T07:37:29.063Z,6.80
2023-03-06T07:40:13.295Z,7.60
2023-03-06T07:43:18.818Z,7.30
2023-03-06T07:46:11.948Z,6.90
2023-03-06T07:49:03.947Z,7.20
2023-03-06T07:51:56.018Z,6.70
2023-03-06T07:54:48.149Z,7.40
2023-03-06T07:57:40.544Z,7.10
2023-03-06T08:00:33.478Z,8.70
2023-03-06T08:03:25.426Z,6.80
2023-03-06T08:06:20.163Z,6.40
2023-03-06T08:09:12.128Z,6.90
2023-03-06T08:11:54.228Z,7.00
2023-03-06T08:14:46.265Z,6.60
2023-03-06T08:17:38.418Z,6.40
2023-03-06T08:20:30.409Z,6.70
2023-03-06T08:23:22.382Z,6.30
2023-03-06T08:26:16.725Z,7.00
2023-03-06T08:29:08.949Z,6.60
2023-03-06T08:32:01.034Z,6.20
2023-03-06T08:34:53.454Z,6.70
2023-03-06T08:37:45.558Z,6.40
2023-03-06T08:40:37.682Z,6.20
2023-03-06T08:43:29.659Z,6.00
2023-03-06T08:46:05.169Z,5.90
2023-03-06T08:48:57.575Z,6.30
2023-03-06T08:51:49.564Z,6.40
2023-03-06T08:54:41.533Z,5.80
2023-03-06T08:57:16.591Z,6.20
2023-03-06T09:00:12.901Z,6.90
2023-03-06T09:03:05.398Z,6.50
2023-03-06T09:05:57.456Z,6.40
2023-03-06T09:08:51.336Z,6.60
2023-03-06T09:11:43.293Z,6.50
2023-03-06T09:14:25.304Z,6.70
2023-03-06T09:17:17.251Z,6.40
2023-03-06T09:20:05.473Z,6.50
2023-03-06T09:22:57.549Z,6.50
2023-03-06T09:25:54.443Z,6.30
2023-03-06T09:28:46.781Z,6.10
2023-03-06T09:31:22.107Z,6.60
2023-03-06T09:34:14.204Z,6.10
2023-03-06T09:37:06.383Z,8.00
2023-03-06T09:39:58.890Z,7.00
2023-03-06T09:42:51.126Z,6.60
2023-03-06T09:45:43.241Z,6.90
2023-03-06T09:48:29.483Z,7.10
2023-03-06T09:51:22.221Z,7.30
2023-03-06T09:54:15.860Z,6.00
2023-03-06T09:57:15.017Z,7.30
2023-03-06T10:00:14.590Z,7.10
2023-03-06T10:03:18.890Z,6.00
2023-03-06T10:05:58.307Z,6.20
2023-03-06T10:08:53.980Z,6.20
2023-03-06T10:11:49.842Z,6.00
2023-03-06T10:14:48.790Z,6.20
2023-03-06T10:17:43.072Z,6.00
2023-03-06T10:20:24.266Z,6.50
2023-03-06T10:23:30.125Z,4.80
2023-03-06T10:26:26.261Z,4.90
2023-03-06T10:29:32.075Z,6.20
2023-03-06T10:32:46.096Z,5.00
2023-03-06T10:35:49.854Z,6.50
2023-03-06T10:38:43.153Z,5.80
2023-03-06T10:41:36.575Z,6.60
2023-03-06T10:44:37.177Z,6.10
2023-03-06T10:47:32.379Z,5.90
2023-03-06T10:50:30.590Z,4.80
2023-03-06T10:53:29.461Z,5.90
2023-03-06T10:56:30.872Z,7.20
2023-03-06T10:59:28.244Z,7.00
2023-03-06T11:02:29.112Z,4.80
2023-03-06T11:05:23.022Z,5.70
2023-03-06T11:08:23.270Z,6.00
2023-03-06T11:11:36.678Z,5.20
2023-03-06T11:14:29.329Z,6.00
2023-03-06T11:17:32.028Z,5.30
2023-03-06T11:20:30.285Z,5.40
2023-03-06T11:23:36.777Z,6.60
2023-03-06T11:26:33.740Z,4.80
2023-03-06T11:29:33.104Z,4.90
2023-03-06T11:32:27.714Z,6.20
2023-03-06T11:35:24.871Z,4.60
2023-03-06T11:38:21.581Z,5.60
2023-03-06T11:41:22.233Z,5.30
2023-03-06T11:44:14.578Z,3.10
2023-03-06T11:47:15.974Z,2.90
2023-03-06T11:50:18.656Z,2.60
2023-03-06T11:53:15.720Z,3.60
2023-03-06T11:56:00.912Z,2.30
2023-03-06T11:59:17.112Z,2.70
2023-03-06T12:02:26.555Z,2.60
2023-03-06T12:05:33.638Z,2.80
2023-03-06T12:08:44.295Z,2.70
2023-03-06T12:11:36.470Z,4.20
2023-03-06T12:14:25.732Z,3.30
2023-03-06T12:17:23.704Z,3.30
2023-03-06T12:20:28.549Z,2.90
2023-03-06T12:23:43.744Z,3.40
2023-03-06T12:26:45.671Z,3.50
2023-03-06T12:29:48.967Z,3.50
2023-03-06T12:32:38.409Z,3.40
2023-03-06T12:36:06.389Z,3.60
2023-03-06T12:39:10.495Z,3.90
2023-03-06T12:42:26.086Z,3.60
2023-03-06T12:45:28.003Z,4.00
2023-03-06T12:48:26.768Z,3.90
2023-03-06T12:51:21.308Z,3.60
2023-03-06T12:54:15.949Z,3.70
2023-03-06T12:57:09.295Z,3.80
2023-03-06T12:59:48.487Z,4.50
2023-03-06T13:03:07.528Z,4.50
2023-03-06T13:06:13.775Z,6.30
2023-03-06T13:09:23.294Z,4.20
2023-03-06T13:12:27.495Z,2.70
2023-03-06T13:15:38.148Z,2.90
2023-03-06T13:19:11.328Z,2.60
2023-03-06T13:22:14.267Z,2.70
2023-03-06T13:25:50.006Z,2.80
2023-03-06T13:28:49.418Z,3.10
2023-03-06T13:32:08.784Z,3.50
2023-03-06T13:35:00.876Z,3.30
2023-03-06T13:37:53.752Z,3.70
2023-03-06T13:40:35.904Z,3.60
2023-03-06T13:43:25.075Z,3.90
2023-03-06T13:46:26.097Z,3.40
2023-03-06T13:49:22.737Z,3.80
2023-03-06T13:52:23.983Z,3.80
2023-03-06T13:55:11.984Z,3.40
2023-03-06T13:58:10.406Z,3.90
2023-03-06T14:01:24.099Z,3.50
2023-03-06T14:04:25.858Z,3.40
2023-03-06T14:07:29.262Z,3.90
2023-03-06T14:10:27.047Z,4.00
2023-03-06T14:13:15.319Z,4.10
2023-03-06T14:16:18.899Z,5.20
2023-03-06T14:19:19.656Z,4.70
2023-03-06T14:22:19.781Z,4.90
2023-03-06T14:25:05.580Z,4.30
2023-03-06T14:28:05.681Z,3.80
2023-03-06T14:31:06.427Z,4.00
2023-03-06T14:34:00.574Z,4.20
2023-03-06T14:36:43.188Z,3.80
2023-03-06T14:39:38.322Z,4.30
2023-03-06T14:42:31.383Z,4.20
2023-03-06T14:45:24.838Z,3.80
2023-03-06T14:48:18.109Z,5.00
2023-03-06T14:51:15.068Z,5.40
2023-03-06T14:54:07.948Z,4.50
2023-03-06T14:57:07.467Z,4.10
2023-03-06T15:00:01.430Z,5.00
2023-03-06T15:02:42.161Z,3.60
2023-03-06T15:05:34.535Z,3.00
2023-03-06T15:08:30.491Z,3.10
2023-03-06T15:11:22.507Z,3.20
2023-03-06T15:14:20.650Z,4.30
2023-03-06T15:17:24.654Z,4.10
2023-03-06T15:20:42.504Z,3.90
2023-03-06T15:23:39.718Z,4.80
2023-03-06T15:26:34.738Z,4.70
2023-03-06T15:29:24.242Z,4.50
2023-03-06T15:32:29.919Z,4.30
2023-03-06T15:35:37.317Z,5.00
2023-03-06T15:38:36.228Z,3.80
2023-03-06T15:41:33.536Z,4.40
2023-03-06T15:44:25.876Z,5.70
2023-03-06T15:47:17.966Z,6.30
2023-03-06T15:50:16.964Z,7.00
2023-03-06T15:53:09.033Z,7.70
2023-03-06T15:56:02.794Z,9.90
2023-03-06T15:58:55.332Z,10.50
2023-03-06T16:01:47.421Z,8.60
2023-03-06T16:04:39.493Z,7.20
2023-03-06T16:07:31.530Z,6.90
2023-03-06T16:10:25.706Z,6.60
2023-03-06T16:13:21.925Z,7.20
2023-03-06T16:16:22.248Z,6.40
2023-03-06T16:19:26.051Z,7.30
2023-03-06T16:22:18.966Z,7.50
2023-03-06T16:25:11.663Z,6.90
2023-03-06T16:28:04.858Z,8.80
2023-03-06T16:30:56.887Z,8.00
2023-03-06T16:33:48.964Z,7.90
2023-03-06T16:36:41.425Z,8.70
2023-03-06T16:39:33.477Z,9.00
2023-03-06T16:42:25.488Z,9.10
2023-03-06T16:44:59.977Z,11.60
2023-03-06T16:47:52.357Z,11.00
2023-03-06T16:50:45.054Z,10.60
2023-03-06T16:53:37.019Z,11.90
2023-03-06T16:56:29.245Z,12.50
2023-03-06T16:59:21.222Z,11.90
2023-03-06T17:02:13.409Z,10.40
2023-03-06T17:05:05.998Z,12.00
2023-03-06T17:07:58.290Z,12.30
2023-03-06T17:10:50.528Z,12.40
2023-03-06T17:13:42.849Z,12.10
2023-03-06T17:16:23.968Z,12.80
2023-03-06T17:19:16.778Z,8.90
2023-03-06T17:22:08.952Z,10.40
2023-03-06T17:25:03.096Z,10.30
2023-03-06T17:30:45.471Z,10.30
2023-03-06T17:33:27.828Z,9.70
2023-03-06T17:36:03.775Z,10.10
2023-03-06T17:38:58.854Z,10.70
2023-03-06T17:41:35.927Z,8.60
2023-03-06T17:44:27.998Z,8.20
2023-03-06T17:47:20.177Z,8.80
2023-03-06T17:50:13.824Z,9.60
2023-03-06T17:52:48.775Z,8.80
2023-03-06T17:55:29.911Z,8.30
2023-03-06T17:58:07.412Z,8.70
2023-03-06T18:00:44.675Z,8.80
2023-03-06T18:03:38.574Z,8.60
2023-03-06T18:06:32.200Z,9.80
2023-03-06T18:09:05.004Z,12.30
2023-03-06T18:11:57.860Z,14.20
2023-03-06T18:14:50.686Z,13.30
2023-03-06T18:17:32.474Z,13.00
2023-03-06T18:20:24.524Z,12.30
2023-03-06T18:23:16.566Z,13.40
2023-03-06T18:26:14.040Z,14.10
2023-03-06T18:29:06.838Z,13.40
2023-03-06T18:31:59.313Z,12.60
2023-03-06T18:34:51.640Z,10.60
2023-03-06T18:37:44.273Z,11.00
2023-03-06T18:40:36.759Z,10.50
2023-03-06T18:43:28.836Z,11.60
2023-03-06T18:46:20.792Z,10.40
2023-03-06T18:49:13.804Z,14.40
2023-03-06T18:52:06.370Z,14.70
2023-03-06T18:54:58.647Z,15.00
2023-03-06T18:57:50.768Z,13.30
2023-03-06T19:00:43.483Z,13.20
2023-03-06T19:03:18.682Z,13.30
2023-03-06T19:06:13.103Z,12.00
2023-03-06T19:09:05.620Z,12.00
2023-03-06T19:12:00.129Z,12.10
2023-03-06T19:14:48.772Z,11.00
2023-03-06T19:17:40.809Z,11.10
2023-03-06T19:20:32.873Z,12.30
2023-03-06T19:23:24.937Z,11.10
2023-03-06T19:26:18.663Z,13.20
2023-03-06T19:29:10.842Z,13.30
2023-03-06T19:32:03.087Z,12.30
2023-03-06T19:34:58.547Z,12.40
2023-03-06T19:37:50.590Z,13.50
2023-03-06T19:40:27.929Z,15.40
2023-03-06T19:43:20.034Z,18.70
2023-03-06T19:45:54.243Z,19.50
2023-03-06T19:48:35.071Z,20.20
2023-03-06T19:51:27.337Z,18.80
2023-03-06T19:54:23.252Z,19.20
2023-03-06T19:57:15.612Z,20.20
2023-03-06T20:00:09.315Z,20.70
2023-03-06T20:03:01.530Z,20.90
2023-03-06T20:05:49.326Z,18.00
2023-03-06T20:08:41.322Z,17.90
2023-03-06T20:11:33.637Z,15.40
2023-03-06T20:14:25.681Z,16.20
2023-03-06T20:17:17.772Z,14.80
2023-03-06T20:20:12.195Z,15.40
2023-03-06T20:22:47.964Z,15.20
2023-03-06T20:25:40.159Z,14.90
2023-03-06T20:28:32.230Z,16.60
2023-03-06T20:31:26.732Z,14.60
2023-03-06T20:34:01.560Z,15.00
2023-03-06T20:36:53.602Z,15.40
2023-03-06T20:39:45.929Z,14.40
2023-03-06T20:42:29.171Z,14.20
2023-03-06T20:45:21.345Z,14.00
2023-03-06T20:48:14.098Z,14.80
2023-03-06T20:51:08.060Z,12.40
2023-03-06T20:53:52.985Z,12.50
2023-03-06T20:56:48.082Z,10.90
2023-03-06T20:59:40.197Z,12.50
2023-03-06T21:02:32.145Z,11.50
2023-03-06T21:05:24.123Z,12.10
2023-03-06T21:08:16.405Z,12.20
2023-03-06T21:11:08.508Z,11.60
2023-03-06T21:14:00.867Z,12.60
2023-03-06T21:16:52.905Z,11.10
2023-03-06T21:19:46.039Z,11.90
2023-03-06T21:22:38.081Z,12.60
2023-03-06T21:25:30.343Z,12.00
2023-03-06T21:28:22.510Z,8.70
2023-03-06T21:31:16.014Z,10.20
2023-03-06T21:34:08.083Z,10.60
2023-03-06T21:37:00.117Z,11.20
2023-03-06T21:39:52.195Z,9.40
2023-03-06T21:42:44.273Z,9.20
2023-03-06T21:45:36.294Z,9.50
2023-03-06T21:48:28.264Z,12.60
2023-03-06T21:51:23.359Z,10.10
2023-03-06T21:54:15.374Z,11.40
2023-03-06T21:57:07.690Z,12.00
2023-03-06T21:59:59.802Z,11.50
2023-03-06T22:02:52.239Z,12.40
2023-03-06T22:05:44.134Z,11.50
2023-03-06T22:08:36.160Z,11.10
2023-03-06T22:11:31.226Z,12.00
2023-03-06T22:14:06.792Z,12.10
2023-03-06T22:16:58.861Z,12.90
2023-03-06T22:19:52.227Z,12.30
2023-03-06T22:22:44.708Z,12.70
2023-03-06T22:25:37.828Z,12.50
2023-03-06T22:28:27.157Z,12.60
2023-03-06T22:31:21.464Z,13.00
2023-03-06T22:34:13.644Z,11.20
2023-03-06T22:37:05.705Z,12.40
2023-03-06T22:39:57.791Z,12.00
2023-03-06T22:42:49.920Z,11.30
2023-03-06T22:45:41.932Z,11.70
2023-03-06T22:48:34.429Z,11.80
2023-03-06T22:51:27.303Z,12.20
2023-03-06T22:54:19.431Z,12.70
2023-03-06T22:57:11.422Z,12.90
2023-03-06T23:00:03.786Z,13.30
2023-03-06T23:02:53.099Z,13.10
2023-03-06T23:05:45.048Z,12.60
2023-03-06T23:08:37.193Z,13.50
2023-03-06T23:11:21.397Z,14.70
2023-03-06T23:14:15.265Z,14.40
2023-03-06T23:17:07.379Z,14.70
2023-03-06T23:19:44.418Z,13.80
2023-03-06T23:22:18.919Z,15.60
2023-03-06T23:25:11.714Z,16.60
2023-03-06T23:28:03.856Z,14.70
2023-03-06T23:30:55.983Z,17.90
2023-03-06T23:33:48.115Z,15.80
2023-03-06T23:36:40.105Z,16.10
2023-03-06T23:39:33.647Z,14.10
2023-03-06T23:42:25.650Z,13.80
2023-03-06T23:45:17.856Z,14.50
2023-03-06T23:48:09.949Z,14.40
2023-03-06T23:51:05.502Z,13.70
2023-03-06T23:53:59.487Z,14.50
2023-03-06T23:56:51.510Z,14.10
2023-03-06T23:59:45.153Z,14.90
